LRC656 MRLB-MROC
Flight info
| Callsign | LRC656 |
|---|---|
| Flight time | N/A |
| Altitude | 17000 |
| Route | PUXAS1V PUXAS |
| Aircraft | A20N/M-SDE2E3FGHIRWXY/LB1 |
Departure
| Time | 2026-04-26 19:37 |
|---|---|
| Airport | Daniel Oduber Quirós International Airport (MRLB) |
Arrival
| Time | N/A |
|---|---|
| Airport | Juan Santamaría International Airport (MROC) |
| Time | Latitude | Longitude | Altitude | Speed | Heading |
|---|---|---|---|---|---|
| 2026-04-26 19:26 | 10.60003 | -85.53510 | 281 ft | 0 kts | 340° |
| 2026-04-26 19:30 | 10.60001 | -85.53510 | 281 ft | 3 kts | 339° |
| 2026-04-26 19:31 | 10.59976 | -85.53499 | 283 ft | 3 kts | 333° |
| 2026-04-26 19:31 | 10.59958 | -85.53489 | 284 ft | 3 kts | 337° |
| 2026-04-26 19:31 | 10.59938 | -85.53489 | 286 ft | 3 kts | 36° |
| 2026-04-26 19:31 | 10.59923 | -85.53504 | 287 ft | 3 kts | 48° |
| 2026-04-26 19:32 | 10.59909 | -85.53520 | 283 ft | 3 kts | 44° |
| 2026-04-26 19:32 | 10.59898 | -85.53537 | 285 ft | 3 kts | 76° |
| 2026-04-26 19:32 | 10.59897 | -85.53541 | 286 ft | 0 kts | 73° |
| 2026-04-26 19:35 | 10.59898 | -85.53538 | 285 ft | 0 kts | 73° |
| 2026-04-26 19:35 | 10.59900 | -85.53532 | 285 ft | 3 kts | 73° |
| 2026-04-26 19:35 | 10.59909 | -85.53499 | 284 ft | 7 kts | 73° |
| 2026-04-26 19:36 | 10.59934 | -85.53429 | 280 ft | 13 kts | 69° |
| 2026-04-26 19:36 | 10.59945 | -85.53397 | 280 ft | 15 kts | 74° |
| 2026-04-26 19:36 | 10.59820 | -85.53307 | 279 ft | 18 kts | 162° |
| 2026-04-26 19:36 | 10.59770 | -85.53292 | 278 ft | 3 kts | 176° |
| 2026-04-26 19:37 | 10.59700 | -85.53435 | 283 ft | 57 kts | 250° |
| 2026-04-26 19:37 | 10.59480 | -85.54054 | 279 ft | 127 kts | 250° |
| 2026-04-26 19:37 | 10.59128 | -85.55036 | 637 ft | 150 kts | 248° |
| 2026-04-26 19:37 | 10.58784 | -85.55995 | 1505 ft | 142 kts | 254° |
| 2026-04-26 19:38 | 10.58450 | -85.56977 | 2211 ft | 150 kts | 253° |
| 2026-04-26 19:38 | 10.58090 | -85.57983 | 2859 ft | 154 kts | 252° |
| 2026-04-26 19:38 | 10.57719 | -85.59020 | 3487 ft | 158 kts | 251° |
| 2026-04-26 19:38 | 10.57340 | -85.60075 | 4144 ft | 160 kts | 250° |
| 2026-04-26 19:39 | 10.56956 | -85.61144 | 4800 ft | 162 kts | 250° |
| 2026-04-26 19:39 | 10.56567 | -85.62223 | 5441 ft | 164 kts | 249° |
| 2026-04-26 19:39 | 10.56176 | -85.63311 | 6098 ft | 164 kts | 249° |
| 2026-04-26 19:39 | 10.55708 | -85.64364 | 6691 ft | 164 kts | 227° |
| 2026-04-26 19:40 | 10.54692 | -85.65011 | 6885 ft | 199 kts | 189° |
| 2026-04-26 19:40 | 10.53207 | -85.64823 | 6998 ft | 237 kts | 147° |
| 2026-04-26 19:40 | 10.52124 | -85.63521 | 7462 ft | 242 kts | 108° |
| 2026-04-26 19:40 | 10.51817 | -85.61807 | 7258 ft | 255 kts | 96° |
| 2026-04-26 19:41 | 10.51320 | -85.60091 | 7424 ft | 254 kts | 117° |
| 2026-04-26 19:41 | 10.50402 | -85.58542 | 8183 ft | 264 kts | 122° |
| 2026-04-26 19:41 | 10.49349 | -85.56937 | 8729 ft | 279 kts | 122° |
| 2026-04-26 19:41 | 10.49000 | -85.56402 | 8979 ft | 281 kts | 122° |
| 2026-04-26 19:42 | 10.47202 | -85.53547 | 10230 ft | 293 kts | 121° |
| 2026-04-26 19:42 | 10.46099 | -85.51723 | 10579 ft | 315 kts | 121° |
| 2026-04-26 19:42 | 10.44924 | -85.49743 | 10790 ft | 338 kts | 120° |
| 2026-04-26 19:42 | 10.43731 | -85.47691 | 11382 ft | 346 kts | 118° |
| 2026-04-26 19:43 | 10.42669 | -85.45490 | 12121 ft | 349 kts | 115° |
| 2026-04-26 19:43 | 10.41604 | -85.43254 | 12816 ft | 354 kts | 115° |
| 2026-04-26 19:43 | 10.40520 | -85.40992 | 13513 ft | 359 kts | 115° |
| 2026-04-26 19:43 | 10.39414 | -85.38689 | 14093 ft | 365 kts | 115° |
| 2026-04-26 19:44 | 10.38295 | -85.36362 | 14653 ft | 369 kts | 115° |
| 2026-04-26 19:44 | 10.37164 | -85.34009 | 14892 ft | 372 kts | 115° |
| 2026-04-26 19:44 | 10.36027 | -85.31646 | 14976 ft | 372 kts | 115° |
| 2026-04-26 19:44 | 10.34907 | -85.29317 | 14981 ft | 372 kts | 115° |
| 2026-04-26 19:45 | 10.33772 | -85.26957 | 14983 ft | 372 kts | 115° |
| 2026-04-26 19:45 | 10.32632 | -85.24599 | 14979 ft | 372 kts | 117° |
| 2026-04-26 19:45 | 10.31285 | -85.22358 | 14982 ft | 373 kts | 125° |
| 2026-04-26 19:45 | 10.29644 | -85.20321 | 14986 ft | 373 kts | 131° |
| 2026-04-26 19:46 | 10.27918 | -85.18359 | 14981 ft | 373 kts | 131° |
| 2026-04-26 19:46 | 10.26193 | -85.16384 | 14982 ft | 374 kts | 130° |
| 2026-04-26 19:46 | 10.24469 | -85.14404 | 14982 ft | 374 kts | 130° |
| 2026-04-26 19:46 | 10.22752 | -85.12429 | 14981 ft | 373 kts | 131° |
| 2026-04-26 19:47 | 10.21057 | -85.10482 | 14985 ft | 374 kts | 130° |
| 2026-04-26 19:47 | 10.20476 | -85.09813 | 14989 ft | 373 kts | 130° |
| 2026-04-26 19:47 | 10.17616 | -85.06522 | 14985 ft | 374 kts | 130° |
| 2026-04-26 19:47 | 10.15899 | -85.04540 | 14990 ft | 373 kts | 130° |
| 2026-04-26 19:48 | 10.14179 | -85.02561 | 14990 ft | 374 kts | 130° |
| 2026-04-26 19:48 | 10.12459 | -85.00585 | 14989 ft | 374 kts | 130° |
| 2026-04-26 19:48 | 10.10821 | -84.98539 | 14985 ft | 373 kts | 127° |
| 2026-04-26 19:48 | 10.09232 | -84.96461 | 14994 ft | 373 kts | 126° |
| 2026-04-26 19:49 | 10.07639 | -84.94381 | 14989 ft | 373 kts | 127° |
| 2026-04-26 19:49 | 10.06065 | -84.92332 | 14989 ft | 373 kts | 127° |
| 2026-04-26 19:49 | 10.04448 | -84.90228 | 14990 ft | 373 kts | 127° |
| 2026-04-26 19:49 | 10.02874 | -84.88179 | 14990 ft | 373 kts | 127° |
| 2026-04-26 19:50 | 10.01276 | -84.86100 | 14992 ft | 374 kts | 127° |
| 2026-04-26 19:50 | 9.99682 | -84.84024 | 14992 ft | 373 kts | 127° |
| 2026-04-26 19:50 | 9.98084 | -84.81945 | 14995 ft | 373 kts | 127° |
| 2026-04-26 19:50 | 9.96486 | -84.79867 | 15005 ft | 374 kts | 127° |
| 2026-04-26 19:51 | 9.94888 | -84.77788 | 15007 ft | 374 kts | 127° |
| 2026-04-26 19:51 | 9.93294 | -84.75712 | 14951 ft | 372 kts | 127° |
| 2026-04-26 19:51 | 9.91710 | -84.73653 | 14673 ft | 370 kts | 127° |
| 2026-04-26 19:51 | 9.90155 | -84.71631 | 14270 ft | 367 kts | 127° |
| 2026-04-26 19:52 | 9.88594 | -84.69600 | 13808 ft | 364 kts | 127° |
| 2026-04-26 19:52 | 9.87046 | -84.67586 | 13290 ft | 360 kts | 127° |
| 2026-04-26 19:52 | 9.85553 | -84.65559 | 12721 ft | 358 kts | 120° |
| 2026-04-26 19:52 | 9.84664 | -84.63234 | 12182 ft | 353 kts | 99° |
| 2026-04-26 19:53 | 9.84625 | -84.60782 | 11680 ft | 347 kts | 79° |
| 2026-04-26 19:53 | 9.85341 | -84.58458 | 11137 ft | 345 kts | 69° |
| 2026-04-26 19:53 | 9.85905 | -84.56958 | 10862 ft | 341 kts | 69° |
| 2026-04-26 19:53 | 9.87008 | -84.54034 | 10689 ft | 323 kts | 69° |
| 2026-04-26 19:54 | 9.87790 | -84.51953 | 10562 ft | 309 kts | 69° |
| 2026-04-26 19:54 | 9.88289 | -84.50623 | 10520 ft | 300 kts | 69° |
| 2026-04-26 19:54 | 9.89242 | -84.48074 | 10376 ft | 284 kts | 69° |
| 2026-04-26 19:54 | 9.89924 | -84.46248 | 10277 ft | 271 kts | 69° |
| 2026-04-26 19:55 | 9.90575 | -84.44502 | 10191 ft | 259 kts | 69° |
| 2026-04-26 19:55 | 9.91197 | -84.42834 | 10098 ft | 247 kts | 69° |
| 2026-04-26 19:55 | 9.91791 | -84.41241 | 10008 ft | 236 kts | 69° |
| 2026-04-26 19:55 | 9.92363 | -84.39706 | 9758 ft | 231 kts | 69° |
| 2026-04-26 19:56 | 9.92742 | -84.38689 | 9436 ft | 235 kts | 69° |
| 2026-04-26 19:56 | 9.93334 | -84.37102 | 8832 ft | 247 kts | 69° |
| 2026-04-26 19:56 | 9.94166 | -84.34865 | 8061 ft | 260 kts | 69° |
| 2026-04-26 19:56 | 9.94803 | -84.33153 | 7630 ft | 258 kts | 69° |
| 2026-04-26 19:57 | 9.95436 | -84.31450 | 7120 ft | 257 kts | 68° |
| 2026-04-26 19:57 | 9.96066 | -84.29757 | 6582 ft | 256 kts | 68° |
| 2026-04-26 19:57 | 9.96480 | -84.28643 | 6236 ft | 254 kts | 69° |
| 2026-04-26 19:57 | 9.96882 | -84.26899 | 5605 ft | 257 kts | 85° |
| 2026-04-26 19:58 | 9.96769 | -84.25089 | 5042 ft | 259 kts | 99° |
| 2026-04-26 19:58 | 9.96493 | -84.23266 | 4416 ft | 261 kts | 99° |
| 2026-04-26 19:58 | 9.96314 | -84.21474 | 4105 ft | 250 kts | 88° |
| 2026-04-26 19:58 | 9.96731 | -84.19372 | 4043 ft | 213 kts | 69° |
| 2026-04-26 19:59 | 9.97098 | -84.18469 | 3960 ft | 198 kts | 64° |
| 2026-04-26 19:59 | 9.97789 | -84.17374 | 3862 ft | 170 kts | 42° |
| 2026-04-26 19:59 | 9.98768 | -84.16959 | 3833 ft | 150 kts | 352° |
| 2026-04-26 19:59 | 9.99513 | -84.17512 | 3815 ft | 133 kts | 287° |
| 2026-04-26 20:00 | 9.99774 | -84.18438 | 3494 ft | 140 kts | 279° |
| 2026-04-26 20:00 | 9.99910 | -84.19630 | 3750 ft | 280 kts | 225° |